Arlington, CA

11:18 AM PDT on October 25, 2014 (GMT -0700)
Airport Area | Change Station
CLOSE
Current Station
Personal Weather Station
Location: Riverside, CA
Elevation: 748 ft
Nearby Weather Stations

Elev 748 ft 33.94 °N, 117.45 °W | Updated 7 seconds ago

Clear
Clear
86.9 °F
Feels Like 83 °F
N
0.0
Wind Variable Wind from WSW
Gusts 0.0 mph

Today
High -- | Low -- °F
--% Chance of Precip.
Yesterday
High -- | Low -- °F
Precip. -- in
7:03 AM 6:04 PM
Waxing Crescent, 4% visible
Pressure 30.02 in
Visibility 10.0 miles
Clouds Clear
Heat Index 83 °F
Dew Point 30 °F
Humidity 13%
Rainfall 0.00 in
Snow Depth Not available.
UV 5 out of 12
Pollen 3.80 out of 12
Ozone Good
PM2.5 Moderate
Flu Activity Sporadic
METAR KRAL 251753Z 00000KT 10SM CLR 25/04 A3006 RMK AO2 SLP164 T02500044 10250 20172 50009

More Conditions Fewer Conditions

Pressure 30.02 in
Visibility 10.0 miles
Clouds Clear
Heat Index 83 °F
Dew Point 30 °F
Humidity 13%
Rainfall 0.00 in
Snow Depth Not available.
UV 5 out of 12
Pollen 3.80 out of 12
Ozone Good
PM2.5 Moderate
Flu Activity Sporadic
METAR KRAL 251753Z 00000KT 10SM CLR 25/04 A3006 RMK AO2 SLP164 T02500044 10250 20172 50009

More Conditions Fewer Conditions

10-Day Weather Forecast

Almanac

Astronomy

Oct. 25, 2014 Rise Set
Actual Time 7:03 AM PDT 6:04 PM PDT
Civil Twilight 6:37 AM PDT 6:29 PM PDT
Nautical Twilight 6:08 AM PDT 6:58 PM PDT
Astronomical Twilight 5:39 AM PDT 7:27 PM PDT
Moon 8:43 AM PDT 7:34 PM PDT
Length of Visible Light 11h 52m
Length of Day
11h 00m
Tomorrow will be 1m 55s shorter.
Waxing Crescent, 4% of the Moon is Illuminated
Today
Waxing Crescent
Oct 30
First Quarter
Nov 6
Full
Nov 14
Last Quarter
Nov 22
New

Today's Extremes

State Highs State Lows

Community

WunderPhotos

Upload Photos

1,764,928 photos uploaded!

Nearby

Air Quality

  Air Quality AQ Index Pollutant
Yesterday Moderate
PM10
Yesterday Good
OZONE
Current Moderate
PM2.5
Current Good
OZONE
Sunday Good
PM10
Sunday Moderate
OZONE
Sunday Good
CO
Sunday Good
NO2

Snow Depth

Station Depth Elevation
Virginia Lakes Ridge 0 in 9200 ft
Leavitt Lake 1 in 9400 ft
Leavitt Meadows 0 in 7200 ft
Sonora Pass 0 in 8800 ft
Summit Meadow 1 in 9122 ft

Earthquake Activity

City Distance Mag. Time & Date
Running Springs, California 34 miles 3.1 4:07 AM PDT
2014-10-25
Brea, California 25 miles 2.9 3:35 PM PDT
2014-10-23
Brea, California 24 miles 2.8 3:34 PM PDT
2014-10-23
Corona, California 12 miles 2.5 1:09 PM PDT
2014-10-23
Minimum magnitude displayed is 2.5.

Coastal Water Temperatures

Place Temperature
No Stations Reporting

Nearby Weather Stations